Time;durP1;ratioP1;P1;durP2;ratioP2;P2;SDS_P1;SDS_P2;PMS_P1;PMS_P2;Temp;Humidity;BMP_temperature;BMP_pressure;BME280_temperature;BME280_humidity;BME280_pressure;Samples;Min_cycle;Max_cycle;Signal;HPM_P1;HPM_P2
2022/01/20 00:01:42;;;;;;;9.57;6.50;;;;;;;3.42;78.88;97537.66;5047857;28;20574;-68
2022/01/20 00:04:16;;;;;;;8.67;7.20;;;;;;;3.40;78.56;97523.81;5055350;28;20629;-68
2022/01/20 00:09:44;;;;;;;9.33;7.60;;;;;;;3.43;78.86;97514.03;5044405;28;20291;-67
2022/01/20 00:23:14;;;;;;;17.03;12.80;;;;;;;3.66;77.76;97499.75;5055693;28;20333;-69
2022/01/20 00:25:46;;;;;;;18.43;13.80;;;;;;;3.69;77.51;97502.22;5055818;28;20288;-67
2022/01/20 00:26:32;;;;;;;18.73;14.10;;;;;;;3.78;76.38;97499.13;5055672;28;20218;-67
2022/01/20 00:29:01;;;;;;;15.63;13.23;;;;;;;3.79;76.58;97494.75;5037744;28;20214;-67
2022/01/20 00:31:40;;;;;;;15.73;12.70;;;;;;;3.82;76.69;97490.22;5044343;28;20225;-67
2022/01/20 00:34:17;;;;;;;15.37;12.87;;;;;;;3.86;75.18;97499.56;5056411;28;20200;-66
2022/01/20 00:39:29;;;;;;;18.83;12.80;;;;;;;3.71;76.21;97497.78;5060567;28;20264;-68
2022/01/20 00:41:57;;;;;;;15.37;12.23;;;;;;;3.66;77.00;97509.38;5043257;28;20203;-68
2022/01/20 00:44:24;;;;;;;17.67;13.67;;;;;;;3.62;76.82;97507.84;5037435;28;20215;-67
2022/01/20 00:46:50;;;;;;;14.40;12.43;;;;;;;3.58;77.46;97512.38;5037122;28;20230;-67
2022/01/20 00:49:17;;;;;;;13.47;11.70;;;;;;;3.62;76.77;97508.69;5036852;28;20204;-68
2022/01/20 00:51:45;;;;;;;13.17;11.00;;;;;;;3.57;77.23;97515.94;5037875;28;20207;-68
2022/01/20 00:54:12;;;;;;;13.97;11.63;;;;;;;3.51;78.47;97511.00;5035191;28;20639;-68
2022/01/20 00:56:38;;;;;;;14.80;11.83;;;;;;;3.40;77.38;97514.19;5035556;28;20219;-67
2022/01/20 00:59:06;;;;;;;14.97;12.00;;;;;;;3.38;77.63;97515.19;5050847;28;20234;-68
2022/01/20 01:01:33;;;;;;;12.97;11.30;;;;;;;3.33;77.66;97518.03;5046039;28;20215;-69
2022/01/20 01:03:59;;;;;;;15.17;11.40;;;;;;;3.40;77.87;97518.59;5043973;28;20195;-69
2022/01/20 01:06:38;;;;;;;13.67;11.60;;;;;;;3.44;78.27;97514.88;5066280;28;20222;-68
2022/01/20 01:09:05;;;;;;;14.40;11.93;;;;;;;3.48;78.48;97532.09;5064658;28;20294;-68
2022/01/20 01:11:32;;;;;;;13.83;11.20;;;;;;;3.49;78.46;97525.94;5046032;28;20294;-69
2022/01/20 01:14:00;;;;;;;13.23;11.43;;;;;;;3.52;78.18;97528.41;5036874;28;20211;-69
2022/01/20 01:16:40;;;;;;;13.83;10.90;;;;;;;3.50;77.78;97522.41;5047559;28;20631;-69
2022/01/20 01:22:03;;;;;;;13.27;10.87;;;;;;;3.51;77.04;97521.47;5035435;28;20218;-68
2022/01/20 01:24:30;;;;;;;11.93;10.60;;;;;;;3.50;77.50;97514.56;5050913;28;20199;-69
2022/01/20 01:26:56;;;;;;;13.13;11.10;;;;;;;3.51;76.69;97521.47;5063104;28;20210;-69
2022/01/20 01:29:39;;;;;;;11.13;9.20;;;;;;;3.52;75.74;97520.56;5076822;28;20201;-68
2022/01/20 01:32:10;;;;;;;10.03;8.57;;;;;;;3.43;74.97;97523.66;5066300;28;20615;-70
2022/01/20 01:34:40;;;;;;;9.00;7.50;;;;;;;3.54;74.00;97516.09;5044108;28;20535;-68
2022/01/20 01:37:14;;;;;;;9.30;8.00;;;;;;;3.60;74.34;97510.56;5057882;28;20195;-69
2022/01/20 01:39:41;;;;;;;7.63;6.87;;;;;;;3.57;74.34;97518.56;5075561;28;20233;-69
2022/01/20 01:42:09;;;;;;;7.67;6.83;;;;;;;3.51;73.50;97534.53;5076983;28;20194;-69
2022/01/20 01:44:38;;;;;;;8.20;6.77;;;;;;;3.54;73.62;97541.41;5077160;28;20203;-69
2022/01/20 01:47:04;;;;;;;8.57;6.33;;;;;;;3.54;73.40;97537.03;5076628;28;20218;-69
2022/01/20 01:49:32;;;;;;;6.87;6.17;;;;;;;3.52;72.97;97544.09;5057432;28;20658;-68
2022/01/20 01:51:59;;;;;;;6.00;5.40;;;;;;;3.56;73.44;97539.56;5058626;28;20630;-67
2022/01/20 01:54:27;;;;;;;6.70;5.83;;;;;;;3.57;73.44;97541.25;5055112;28;20729;-67
2022/01/20 01:56:53;;;;;;;6.67;5.80;;;;;;;3.59;72.45;97542.00;5038863;28;20207;-68
2022/01/20 01:59:20;;;;;;;6.50;5.43;;;;;;;3.57;72.76;97536.88;5038602;28;20243;-68
2022/01/20 02:01:46;;;;;;;5.13;4.63;;;;;;;3.62;72.47;97532.22;5040390;28;20211;-68
2022/01/20 02:04:17;;;;;;;5.27;4.73;;;;;;;3.61;71.72;97533.19;5045980;28;20203;-68
2022/01/20 02:07:16;;;;;;;4.83;4.33;;;;;;;3.62;71.54;97529.63;5045951;28;20254;-68
2022/01/20 02:18:10;;;;;;;3.63;3.33;;;;;;;3.61;71.17;97527.94;5046401;28;20214;-68
2022/01/20 02:20:38;;;;;;;4.03;3.63;;;;;;;3.60;70.89;97534.09;5037667;28;20662;-68
2022/01/20 02:23:05;;;;;;;4.20;3.80;;;;;;;3.66;71.10;97525.06;5037809;28;20521;-68
2022/01/20 02:25:35;;;;;;;3.90;3.60;;;;;;;3.65;70.58;97526.84;5037865;28;20219;-68
2022/01/20 02:28:04;;;;;;;3.47;3.17;;;;;;;3.65;71.33;97519.00;5052210;28;20210;-68
2022/01/20 02:30:31;;;;;;;3.63;3.33;;;;;;;3.68;69.72;97512.78;5050150;28;20215;-68
2022/01/20 02:32:58;;;;;;;3.63;3.33;;;;;;;3.66;71.00;97512.84;5043510;28;20203;-69
2022/01/20 02:35:27;;;;;;;3.50;3.20;;;;;;;3.66;71.46;97504.16;5057539;28;20211;-68
2022/01/20 02:38:00;;;;;;;3.20;2.90;;;;;;;3.73;70.54;97505.53;5042582;28;20214;-68
2022/01/20 02:45:59;;;;;;;3.53;3.23;;;;;;;3.69;70.40;97498.75;5037243;28;20300;-68
2022/01/20 02:48:26;;;;;;;3.13;2.67;;;;;;;3.71;71.26;97487.31;5038009;28;20207;-68
2022/01/20 02:50:53;;;;;;;3.00;2.80;;;;;;;3.57;72.24;97505.50;5039275;28;20207;-69
2022/01/20 02:53:20;;;;;;;3.93;2.80;;;;;;;3.63;73.06;97505.16;5041630;28;20214;-68
2022/01/20 02:55:47;;;;;;;3.43;3.07;;;;;;;3.64;73.61;97496.41;5042350;28;20210;-69
2022/01/20 02:58:13;;;;;;;2.73;2.53;;;;;;;3.59;74.56;97487.94;5037324;28;20538;-69
2022/01/20 03:00:40;;;;;;;2.93;2.73;;;;;;;3.58;74.48;97486.22;5065778;28;20230;-69
2022/01/20 03:03:06;;;;;;;3.00;2.43;;;;;;;3.51;74.84;97495.31;5059598;28;20203;-69
2022/01/20 03:05:33;;;;;;;2.80;2.60;;;;;;;3.54;75.01;97500.41;5051786;28;20249;-67
2022/01/20 03:08:00;;;;;;;3.30;2.93;;;;;;;3.47;75.65;97494.63;5037731;28;20211;-69
2022/01/20 03:10:28;;;;;;;2.93;2.73;;;;;;;3.40;76.44;97502.91;5037579;28;20204;-68
2022/01/20 03:12:55;;;;;;;2.70;2.50;;;;;;;3.36;77.15;97502.22;5036995;28;20215;-67
2022/01/20 03:15:22;;;;;;;2.40;2.30;;;;;;;3.36;77.75;97506.59;5041228;28;20622;-68
2022/01/20 03:17:49;;;;;;;2.60;2.40;;;;;;;3.28;79.30;97499.13;5047532;28;20274;-69
2022/01/20 03:20:16;;;;;;;2.70;2.50;;;;;;;3.23;79.18;97500.25;5037247;28;20235;-69
2022/01/20 03:22:43;;;;;;;2.73;2.53;;;;;;;3.23;79.47;97498.50;5037791;28;20208;-67
2022/01/20 03:25:11;;;;;;;3.10;2.90;;;;;;;3.14;80.32;97511.19;5037668;28;20223;-68
2022/01/20 03:27:39;;;;;;;2.90;2.63;;;;;;;3.04;81.35;97512.56;5038266;28;20309;-68
2022/01/20 03:30:06;;;;;;;3.17;2.90;;;;;;;2.94;82.20;97505.19;5037062;28;20590;-69
2022/01/20 03:32:33;;;;;;;2.80;2.60;;;;;;;3.03;81.91;97501.28;5039203;28;20212;-68
2022/01/20 03:35:00;;;;;;;3.13;2.93;;;;;;;2.98;82.24;97496.28;5062158;28;20250;-68
2022/01/20 03:37:26;;;;;;;3.10;2.90;;;;;;;2.90;83.23;97508.88;5062985;28;20210;-69
2022/01/20 03:39:53;;;;;;;2.90;2.70;;;;;;;2.86;83.88;97506.50;5055588;28;20260;-68
2022/01/20 03:42:19;;;;;;;3.00;2.80;;;;;;;2.82;83.43;97508.41;5044574;28;20208;-68
2022/01/20 03:44:47;;;;;;;2.90;2.70;;;;;;;2.78;84.77;97504.25;5040662;28;20639;-68
2022/01/20 03:47:14;;;;;;;3.20;3.00;;;;;;;2.78;84.31;97517.31;5049841;28;20210;-69
2022/01/20 03:49:52;;;;;;;3.17;2.93;;;;;;;2.74;84.61;97513.16;5050538;28;20313;-68
2022/01/20 03:52:18;;;;;;;3.10;2.80;;;;;;;2.71;85.81;97508.06;5062200;28;20693;-68
2022/01/20 03:54:45;;;;;;;3.00;2.80;;;;;;;2.69;85.55;97504.72;5043801;28;20210;-68
2022/01/20 03:57:11;;;;;;;2.90;2.70;;;;;;;2.75;85.63;97498.34;5043040;28;20567;-69
2022/01/20 03:59:38;;;;;;;3.57;3.03;;;;;;;2.72;86.02;97503.72;5056337;28;20539;-68
2022/01/20 04:02:06;;;;;;;3.47;3.17;;;;;;;2.74;85.43;97502.69;5055788;28;20221;-68
2022/01/20 04:04:32;;;;;;;3.10;2.90;;;;;;;2.69;86.04;97504.72;5044121;28;20208;-69
2022/01/20 04:06:59;;;;;;;3.17;2.97;;;;;;;2.77;85.63;97513.00;5041096;28;20273;-68
2022/01/20 04:09:25;;;;;;;3.40;3.10;;;;;;;2.65;85.84;97503.16;5036476;28;20581;-69
2022/01/20 04:11:51;;;;;;;3.43;3.20;;;;;;;2.63;87.19;97510.19;5038347;28;20203;-68
2022/01/20 04:14:19;;;;;;;3.30;3.00;;;;;;;2.62;86.83;97511.16;5036181;28;20211;-69
2022/01/20 04:17:02;;;;;;;3.63;3.33;;;;;;;2.68;86.33;97502.16;5036001;28;20542;-69
2022/01/20 04:19:33;;;;;;;3.10;2.80;;;;;;;2.66;86.96;97504.00;5035894;28;20228;-68
2022/01/20 04:22:00;;;;;;;3.03;2.83;;;;;;;2.60;88.30;97505.13;5053773;28;20284;-68
2022/01/20 04:24:27;;;;;;;3.50;3.20;;;;;;;2.59;87.28;97502.63;5045181;28;20211;-68
2022/01/20 04:26:54;;;;;;;3.00;2.80;;;;;;;2.62;87.66;97498.09;5036303;28;20225;-68
2022/01/20 04:29:20;;;;;;;3.53;3.23;;;;;;;2.74;86.97;97497.47;5035818;28;20217;-67
2022/01/20 04:31:48;;;;;;;3.27;3.07;;;;;;;2.73;86.87;97501.00;5035661;28;20225;-68
2022/01/20 04:34:15;;;;;;;3.40;3.20;;;;;;;2.79;86.03;97500.72;5052294;28;20215;-69
2022/01/20 04:36:45;;;;;;;3.33;3.13;;;;;;;2.76;86.98;97505.25;5051588;28;20219;-68
2022/01/20 04:39:17;;;;;;;2.90;2.70;;;;;;;2.78;86.42;97506.88;5044691;28;20203;-69
2022/01/20 04:41:43;;;;;;;3.23;3.03;;;;;;;2.75;87.22;97501.78;5050047;28;20204;-68
2022/01/20 04:44:16;;;;;;;2.80;2.67;;;;;;;2.81;86.00;97504.09;5036204;28;20207;-69
2022/01/20 04:46:49;;;;;;;3.33;3.13;;;;;;;2.78;86.45;97500.78;5037647;28;20204;-68
2022/01/20 04:57:03;;;;;;;3.20;3.00;;;;;;;2.71;86.14;97507.22;5039345;28;20210;-68
2022/01/20 04:57:34;;;;;;;3.57;3.00;;;;;;;2.72;86.69;97504.56;5054861;28;20189;-69
2022/01/20 05:00:00;;;;;;;3.07;2.77;;;;;;;2.72;86.81;97496.72;5043479;28;20230;-68
2022/01/20 05:02:28;;;;;;;3.17;2.90;;;;;;;2.66;88.20;97499.59;5041878;28;20637;-68
2022/01/20 05:04:55;;;;;;;3.67;3.30;;;;;;;2.64;89.32;97511.91;5048805;28;20206;-69
2022/01/20 05:07:26;;;;;;;2.90;2.70;;;;;;;2.64;87.41;97505.84;5039084;28;20265;-68
2022/01/20 05:09:54;;;;;;;3.47;3.17;;;;;;;2.68;87.45;97492.56;5037565;28;20225;-68
2022/01/20 05:12:27;;;;;;;2.90;2.70;;;;;;;2.79;86.82;97498.13;5056900;28;20249;-68
2022/01/20 05:14:54;;;;;;;3.33;3.13;;;;;;;2.66;86.33;97498.78;5046926;28;20319;-67
2022/01/20 05:17:21;;;;;;;3.20;3.00;;;;;;;2.58;87.87;97501.75;5067613;28;20220;-68
2022/01/20 05:19:47;;;;;;;3.80;3.27;;;;;;;2.66;88.11;97507.44;5067269;28;20234;-67
2022/01/20 05:22:14;;;;;;;3.13;2.93;;;;;;;2.55;87.12;97501.06;5037492;28;20221;-69
2022/01/20 05:24:41;;;;;;;3.37;2.97;;;;;;;2.64;87.31;97516.28;5037820;28;20207;-69
2022/01/20 05:27:08;;;;;;;3.17;2.97;;;;;;;2.65;86.92;97508.38;5068233;28;20305;-69
2022/01/20 05:29:34;;;;;;;3.27;3.07;;;;;;;2.66;86.96;97507.44;5065270;28;20225;-69
2022/01/20 05:32:01;;;;;;;3.70;3.40;;;;;;;2.62;86.60;97513.75;5064675;28;20210;-69
2022/01/20 05:34:27;;;;;;;3.20;3.00;;;;;;;2.69;87.59;97515.16;5072398;28;20183;-69
2022/01/20 05:36:54;;;;;;;3.13;2.93;;;;;;;2.64;87.40;97517.13;5057668;28;20650;-69
2022/01/20 05:39:20;;;;;;;4.60;3.20;;;;;;;2.68;87.26;97520.44;5058741;28;20218;-69
2022/01/20 05:41:48;;;;;;;3.17;2.93;;;;;;;2.71;86.88;97523.75;5055028;28;20199;-69
2022/01/20 05:44:15;;;;;;;3.43;3.23;;;;;;;2.71;87.32;97526.34;5061595;28;20530;-68
2022/01/20 05:46:46;;;;;;;3.07;2.83;;;;;;;2.78;86.99;97532.97;5067707;28;20629;-69
2022/01/20 05:49:20;;;;;;;3.17;2.97;;;;;;;2.77;86.85;97523.44;5069156;28;20207;-69
2022/01/20 05:51:47;;;;;;;3.40;3.10;;;;;;;2.77;86.51;97533.88;5072598;28;20198;-69
2022/01/20 05:54:13;;;;;;;3.50;3.20;;;;;;;2.83;85.81;97544.06;5062723;28;20210;-69
2022/01/20 05:56:40;;;;;;;3.47;3.20;;;;;;;2.85;86.06;97537.00;5071279;28;20206;-69
2022/01/20 05:59:07;;;;;;;2.90;2.70;;;;;;;2.89;85.47;97533.31;5073582;28;20190;-69
2022/01/20 06:01:37;;;;;;;3.33;3.13;;;;;;;2.84;85.80;97530.06;5059451;28;20658;-68
2022/01/20 06:04:05;;;;;;;3.33;3.13;;;;;;;2.88;86.51;97520.31;5055789;28;20186;-70
2022/01/20 06:06:32;;;;;;;3.17;2.93;;;;;;;2.90;85.78;97516.72;5055338;28;20244;-69
2022/01/20 06:08:59;;;;;;;4.60;2.97;;;;;;;2.92;86.35;97512.25;5057115;28;20216;-69
2022/01/20 06:11:25;;;;;;;3.10;2.90;;;;;;;2.84;85.67;97513.53;5053928;28;20204;-68
2022/01/20 06:13:51;;;;;;;3.17;2.97;;;;;;;2.86;86.94;97502.13;5038559;28;20291;-69
2022/01/20 06:16:19;;;;;;;3.07;2.87;;;;;;;2.88;86.59;97508.09;5038906;28;20215;-69
2022/01/20 06:18:46;;;;;;;3.00;2.80;;;;;;;2.98;85.58;97503.25;5042713;28;20638;-69
2022/01/20 06:21:12;;;;;;;3.30;3.10;;;;;;;2.91;85.29;97505.34;5058520;28;20227;-67
2022/01/20 06:23:40;;;;;;;3.37;3.10;;;;;;;2.88;86.28;97505.50;5040090;28;20233;-69
2022/01/20 06:26:06;;;;;;;3.73;3.43;;;;;;;2.91;85.15;97507.09;5038309;28;20214;-67
2022/01/20 06:28:33;;;;;;;3.17;2.97;;;;;;;2.92;84.61;97512.25;5037944;28;20222;-68
2022/01/20 06:31:00;;;;;;;3.40;3.10;;;;;;;2.87;84.95;97513.41;5038241;28;20222;-69
2022/01/20 06:33:27;;;;;;;3.20;2.90;;;;;;;2.92;84.72;97527.94;5048211;28;20281;-69
2022/01/20 06:35:54;;;;;;;3.00;2.80;;;;;;;2.92;84.45;97516.63;5059214;28;20216;-68
2022/01/20 06:38:21;;;;;;;3.70;3.40;;;;;;;2.90;85.60;97513.25;5040934;28;20225;-68
2022/01/20 06:40:47;;;;;;;3.70;3.40;;;;;;;2.99;84.14;97512.78;5047876;28;20230;-69
2022/01/20 06:43:14;;;;;;;3.37;3.10;;;;;;;2.96;84.78;97505.13;5045315;28;20211;-68
2022/01/20 06:45:40;;;;;;;3.50;3.20;;;;;;;2.97;85.60;97499.81;5072387;28;20214;-68
2022/01/20 06:48:07;;;;;;;2.97;2.77;;;;;;;3.03;84.54;97513.50;5080253;28;20202;-68
2022/01/20 06:50:35;;;;;;;3.10;2.90;;;;;;;2.98;84.30;97518.94;5061653;28;20210;-67
2022/01/20 06:53:01;;;;;;;3.00;2.70;;;;;;;3.12;83.59;97518.28;5056525;28;20213;-69
2022/01/20 06:55:28;;;;;;;2.93;2.73;;;;;;;3.07;83.79;97512.44;5049615;28;20215;-69
2022/01/20 06:57:54;;;;;;;3.40;2.90;;;;;;;3.10;84.02;97520.09;5057012;28;20210;-68
2022/01/20 07:00:22;;;;;;;3.00;2.80;;;;;;;3.15;83.24;97518.13;5057678;28;20238;-68
2022/01/20 07:02:51;;;;;;;3.10;2.90;;;;;;;3.21;82.61;97525.66;5063489;28;20210;-68
2022/01/20 07:05:19;;;;;;;2.83;2.63;;;;;;;3.17;82.53;97524.97;5057160;28;20222;-66
2022/01/20 07:07:47;;;;;;;3.07;2.87;;;;;;;3.15;81.98;97528.56;5042852;28;20207;-68
2022/01/20 07:10:16;;;;;;;3.07;2.87;;;;;;;3.26;81.36;97534.94;5046554;28;20222;-68
2022/01/20 07:12:44;;;;;;;3.43;3.13;;;;;;;3.24;81.45;97533.34;5049989;28;20276;-69
2022/01/20 07:15:11;;;;;;;3.10;2.90;;;;;;;3.30;81.38;97527.78;5042448;28;20298;-68
2022/01/20 07:17:37;;;;;;;3.47;3.27;;;;;;;3.21;81.81;97533.50;5044388;28;20261;-68
2022/01/20 07:20:05;;;;;;;3.80;3.30;;;;;;;3.21;81.83;97533.50;5037646;28;20221;-68
2022/01/20 07:22:32;;;;;;;3.50;3.20;;;;;;;3.19;81.93;97530.94;5037876;28;20211;-68
2022/01/20 07:24:59;;;;;;;3.23;3.03;;;;;;;3.21;81.58;97538.72;5038124;28;20222;-69
2022/01/20 07:27:27;;;;;;;8.03;3.40;;;;;;;3.21;82.33;97549.16;5036485;28;20669;-68
2022/01/20 07:29:54;;;;;;;4.70;3.13;;;;;;;3.23;81.88;97560.38;5038197;28;20258;-69
2022/01/20 07:32:21;;;;;;;3.20;3.00;;;;;;;3.20;81.91;97561.38;5037265;28;20219;-68
2022/01/20 07:34:47;;;;;;;3.67;3.37;;;;;;;3.27;81.80;97559.31;5050603;28;20218;-68
2022/01/20 07:37:13;;;;;;;3.07;2.87;;;;;;;3.26;81.88;97552.41;5048280;28;20221;-67
2022/01/20 07:39:41;;;;;;;3.50;3.20;;;;;;;3.23;81.70;97555.16;5060425;28;20222;-69
2022/01/20 07:42:09;;;;;;;3.43;3.13;;;;;;;3.23;81.80;97557.78;5052753;28;20219;-69
2022/01/20 07:44:36;;;;;;;3.33;3.03;;;;;;;3.27;82.05;97551.47;5038278;28;20221;-67
2022/01/20 07:47:03;;;;;;;3.23;3.03;;;;;;;3.29;82.30;97542.66;5049997;28;20216;-69
2022/01/20 07:49:30;;;;;;;3.00;2.80;;;;;;;3.28;82.05;97545.34;5041283;28;20515;-69
2022/01/20 07:51:56;;;;;;;3.53;3.30;;;;;;;3.22;82.89;97550.88;5067755;28;20210;-71
2022/01/20 07:54:22;;;;;;;3.63;3.33;;;;;;;3.24;82.42;97544.63;5067906;28;20209;-69
2022/01/20 07:56:49;;;;;;;2.97;2.77;;;;;;;3.30;82.84;97543.47;5055157;28;20195;-68
2022/01/20 07:59:17;;;;;;;3.70;3.40;;;;;;;3.36;82.30;97548.41;5040565;28;20280;-68
2022/01/20 08:01:44;;;;;;;3.50;3.20;;;;;;;3.32;82.47;97544.25;5038267;28;20292;-68
2022/01/20 08:04:10;;;;;;;3.77;3.47;;;;;;;3.32;81.80;97560.78;5046480;28;20220;-69
2022/01/20 08:06:37;;;;;;;3.30;3.00;;;;;;;3.33;81.94;97564.25;5062118;28;20250;-67
2022/01/20 08:09:04;;;;;;;3.50;3.20;;;;;;;3.27;82.26;97556.69;5053305;28;20209;-67
2022/01/20 08:11:31;;;;;;;3.20;3.00;;;;;;;3.33;82.33;97554.63;5041115;28;20211;-68
2022/01/20 08:13:58;;;;;;;3.50;3.20;;;;;;;3.37;82.13;97560.53;5036455;28;20231;-68
2022/01/20 08:16:26;;;;;;;3.10;2.80;;;;;;;3.34;82.25;97564.16;5035976;28;20211;-68
2022/01/20 08:18:53;;;;;;;3.00;2.80;;;;;;;3.35;82.56;97572.84;5036173;28;20218;-68
2022/01/20 08:21:19;;;;;;;3.50;3.20;;;;;;;3.38;82.04;97573.56;5036869;28;20320;-67
2022/01/20 08:23:46;;;;;;;3.43;3.20;;;;;;;3.41;81.06;97588.22;5037139;28;20220;-67
2022/01/20 08:26:12;;;;;;;3.43;3.13;;;;;;;3.37;81.25;97594.53;5036816;28;20533;-68
2022/01/20 08:28:39;;;;;;;3.43;3.23;;;;;;;3.35;81.75;97601.63;5036477;28;20214;-68
2022/01/20 08:31:06;;;;;;;3.43;3.13;;;;;;;3.41;81.07;97603.91;5036159;28;20639;-69
2022/01/20 08:33:33;;;;;;;3.47;3.17;;;;;;;3.32;82.57;97602.63;5040582;28;20290;-68
2022/01/20 08:36:00;;;;;;;3.70;3.40;;;;;;;3.45;81.86;97606.31;5046054;28;20534;-67
2022/01/20 08:38:26;;;;;;;3.30;2.80;;;;;;;3.47;81.34;97609.69;5052234;28;20699;-69
2022/01/20 08:40:53;;;;;;;3.43;3.20;;;;;;;3.51;80.92;97610.38;5044205;28;20223;-68
2022/01/20 08:43:19;;;;;;;3.70;3.40;;;;;;;3.41;81.33;97622.22;5035437;28;20215;-68
2022/01/20 08:45:47;;;;;;;3.20;3.00;;;;;;;3.36;81.36;97627.69;5035127;28;20226;-69
2022/01/20 08:48:13;;;;;;;3.17;2.97;;;;;;;3.48;80.96;97629.69;5035227;28;20211;-68
2022/01/20 08:50:44;;;;;;;3.40;3.20;;;;;;;3.46;81.45;97633.31;5036766;28;20217;-68
2022/01/20 08:53:11;;;;;;;3.70;3.40;;;;;;;3.46;82.04;97634.16;5047304;28;20213;-67
2022/01/20 08:55:38;;;;;;;3.70;3.07;;;;;;;3.50;81.91;97642.72;5077265;28;20202;-69
2022/01/20 08:58:05;;;;;;;3.60;3.30;;;;;;;3.43;81.99;97647.41;5069998;28;20210;-68
2022/01/20 09:00:33;;;;;;;3.17;2.97;;;;;;;3.44;82.57;97645.59;5041595;28;20610;-67
2022/01/20 09:03:00;;;;;;;3.50;3.20;;;;;;;3.43;82.71;97643.94;5052182;28;20626;-67
2022/01/20 09:05:27;;;;;;;3.53;3.27;;;;;;;3.48;82.36;97644.53;5052817;28;20242;-68
2022/01/20 09:07:54;;;;;;;3.73;3.43;;;;;;;3.41;82.97;97643.13;5039664;28;20216;-67
2022/01/20 09:10:21;;;;;;;3.60;3.30;;;;;;;3.43;83.28;97657.00;5041955;28;20209;-68
2022/01/20 09:15:39;;;;;;;3.43;3.10;;;;;;;3.53;83.88;97644.31;5001695;28;20219;-66
2022/01/20 09:18:08;;;;;;;3.40;3.10;;;;;;;3.36;84.66;97647.75;5047846;28;20211;-68
2022/01/20 09:20:37;;;;;;;3.23;3.03;;;;;;;3.36;85.19;97648.63;5039903;28;20288;-68
2022/01/20 09:23:05;;;;;;;3.43;3.13;;;;;;;3.41;84.93;97645.75;5039753;28;20207;-68
2022/01/20 09:25:32;;;;;;;3.43;3.13;;;;;;;3.36;85.29;97640.78;5060348;28;20229;-68
2022/01/20 09:28:00;;;;;;;3.63;3.33;;;;;;;3.34;85.63;97639.97;5046472;28;20214;-69
2022/01/20 09:30:27;;;;;;;4.00;3.60;;;;;;;3.40;85.02;97637.06;5039939;28;20281;-67
2022/01/20 09:33:00;;;;;;;3.87;3.57;;;;;;;3.40;85.21;97633.63;5045318;28;20230;-68
2022/01/20 09:35:30;;;;;;;6.43;3.27;;;;;;;3.37;85.11;97644.19;5052132;28;20203;-66
2022/01/20 09:37:57;;;;;;;4.13;3.83;;;;;;;3.37;85.97;97650.28;5046883;28;20242;-68
2022/01/20 09:40:25;;;;;;;5.50;3.40;;;;;;;3.48;85.65;97662.84;5060455;28;20216;-67
2022/01/20 09:42:51;;;;;;;3.80;3.50;;;;;;;3.36;86.21;97666.06;5044873;28;20235;-68
2022/01/20 09:45:18;;;;;;;5.07;3.60;;;;;;;3.38;85.96;97666.81;5039092;28;20211;-67
2022/01/20 09:47:45;;;;;;;3.67;3.37;;;;;;;3.39;85.91;97668.53;5040908;28;20219;-67
2022/01/20 09:50:13;;;;;;;4.13;3.50;;;;;;;3.39;86.52;97668.53;5040677;28;20619;-66
2022/01/20 09:52:40;;;;;;;5.43;3.70;;;;;;;3.35;86.74;97678.28;5040694;28;20199;-68
2022/01/20 09:55:07;;;;;;;3.80;3.53;;;;;;;3.31;86.86;97681.09;5050920;28;20230;-69
2022/01/20 09:57:35;;;;;;;3.80;3.50;;;;;;;3.34;86.55;97683.56;5038551;28;20233;-67
2022/01/20 10:00:03;;;;;;;4.50;3.63;;;;;;;3.29;86.41;97677.72;5038542;28;20534;-67
2022/01/20 10:02:29;;;;;;;3.60;3.30;;;;;;;3.24;86.92;97683.19;5051990;28;20274;-66
2022/01/20 10:04:57;;;;;;;3.83;3.53;;;;;;;3.25;87.05;97684.03;5049989;28;20210;-67
2022/01/20 10:07:23;;;;;;;4.07;3.77;;;;;;;3.32;87.07;97678.44;5040663;28;20249;-66
2022/01/20 10:09:51;;;;;;;3.83;3.53;;;;;;;3.30;87.24;97674.19;5039298;28;20207;-67
2022/01/20 10:12:19;;;;;;;4.50;4.10;;;;;;;3.42;87.09;97674.44;5040391;28;20211;-66
2022/01/20 10:14:50;;;;;;;4.20;3.90;;;;;;;3.50;87.93;97677.56;5038920;28;20221;-68
2022/01/20 10:17:18;;;;;;;4.63;4.20;;;;;;;3.59;87.65;97688.47;5052008;28;20210;-68
2022/01/20 10:19:45;;;;;;;5.00;4.13;;;;;;;3.65;86.58;97696.03;5037974;28;20212;-68
2022/01/20 10:22:12;;;;;;;4.57;4.27;;;;;;;3.62;86.82;97691.78;5038052;28;20238;-67
2022/01/20 10:24:39;;;;;;;4.33;3.93;;;;;;;3.64;86.36;97689.94;5038004;28;20580;-67
2022/01/20 10:27:10;;;;;;;4.53;4.10;;;;;;;3.79;85.52;97691.78;5037905;28;20229;-67
2022/01/20 10:29:36;;;;;;;4.47;4.07;;;;;;;3.76;85.88;97694.56;5037725;28;20635;-68
2022/01/20 10:32:05;;;;;;;4.33;3.93;;;;;;;3.67;85.78;97687.19;5037855;28;20560;-67
2022/01/20 10:34:35;;;;;;;4.43;4.10;;;;;;;3.68;85.08;97672.34;5056334;28;20206;-67
2022/01/20 10:37:06;;;;;;;5.17;4.53;;;;;;;4.01;85.41;97674.09;5051062;28;20207;-68
2022/01/20 10:39:34;;;;;;;4.70;4.30;;;;;;;4.19;85.76;97681.94;5044504;28;20210;-68
2022/01/20 10:42:04;;;;;;;4.20;3.90;;;;;;;4.29;84.93;97683.16;5053716;28;20597;-67
2022/01/20 10:44:41;;;;;;;4.53;4.13;;;;;;;4.29;83.42;97672.66;5045918;28;20234;-67
2022/01/20 10:47:12;;;;;;;4.60;4.13;;;;;;;4.20;82.73;97673.16;5057868;28;20206;-69
2022/01/20 10:49:38;;;;;;;4.57;4.17;;;;;;;4.10;83.04;97674.56;5056575;28;20191;-67
2022/01/20 10:52:07;;;;;;;4.70;4.30;;;;;;;4.13;83.89;97670.00;5040429;28;20215;-69
2022/01/20 10:54:38;;;;;;;4.43;4.13;;;;;;;4.11;84.32;97653.53;5051210;28;20218;-68
2022/01/20 10:57:07;;;;;;;4.70;4.20;;;;;;;4.12;84.72;97657.84;5037192;28;20218;-68
2022/01/20 10:59:34;;;;;;;4.90;4.40;;;;;;;4.15;83.91;97641.13;5037076;28;20297;-68
2022/01/20 11:02:05;;;;;;;4.80;4.40;;;;;;;4.19;83.46;97640.91;5047518;28;20230;-68
2022/01/20 11:04:34;;;;;;;4.43;4.03;;;;;;;4.26;83.05;97630.94;5045432;28;20203;-68
2022/01/20 11:07:03;;;;;;;4.73;4.33;;;;;;;4.23;83.17;97636.34;5042168;28;20589;-68
2022/01/20 11:09:33;;;;;;;5.10;4.60;;;;;;;4.21;83.83;97632.97;5037323;28;20285;-68
2022/01/20 11:12:01;;;;;;;5.00;4.60;;;;;;;4.40;83.17;97638.91;5039821;28;20899;-67
2022/01/20 11:14:27;;;;;;;4.80;4.40;;;;;;;4.35;83.31;97630.47;5037167;28;20211;-75
2022/01/20 11:16:54;;;;;;;5.27;4.70;;;;;;;4.40;83.78;97626.69;5036907;28;20220;-72
2022/01/20 11:19:22;;;;;;;4.43;4.10;;;;;;;4.39;82.66;97622.34;5038266;28;20212;-76
2022/01/20 11:21:50;;;;;;;4.77;4.37;;;;;;;4.34;83.09;97621.78;5037566;28;20243;-74
2022/01/20 11:24:19;;;;;;;4.80;4.40;;;;;;;4.39;82.77;97621.53;5036639;28;20226;-77
2022/01/20 11:26:49;;;;;;;4.90;4.50;;;;;;;4.42;82.79;97632.69;5040764;28;20204;-74
2022/01/20 11:29:16;;;;;;;4.60;4.20;;;;;;;4.46;82.66;97633.38;5046428;28;20203;-73
2022/01/20 11:31:43;;;;;;;5.03;4.63;;;;;;;4.51;82.78;97628.72;5039273;28;20528;-78
2022/01/20 11:34:14;;;;;;;4.23;3.93;;;;;;;4.47;83.14;97625.41;5053044;28;20214;-72
2022/01/20 11:36:41;;;;;;;4.80;4.40;;;;;;;4.53;83.15;97615.56;5052609;28;20578;-74
2022/01/20 11:39:09;;;;;;;4.83;4.43;;;;;;;4.48;83.08;97626.28;5041306;28;20301;-74
2022/01/20 11:41:37;;;;;;;4.63;4.30;;;;;;;4.47;81.67;97624.56;5057109;28;20227;-73
2022/01/20 11:44:12;;;;;;;4.87;4.47;;;;;;;4.41;82.20;97617.06;5045939;28;20204;-74
2022/01/20 11:46:40;;;;;;;4.00;3.70;;;;;;;4.40;81.76;97610.13;5056656;28;20210;-74
2022/01/20 11:49:10;;;;;;;4.60;4.30;;;;;;;4.50;80.81;97617.41;5056461;28;20276;-68
2022/01/20 11:51:45;;;;;;;3.73;3.43;;;;;;;4.47;79.67;97616.72;5041273;28;20196;-68
2022/01/20 11:54:16;;;;;;;4.30;3.90;;;;;;;4.48;81.31;97607.94;5037511;28;20223;-68
2022/01/20 11:56:45;;;;;;;3.97;3.67;;;;;;;4.50;80.78;97604.31;5039635;28;20208;-66
2022/01/20 11:59:13;;;;;;;3.87;3.50;;;;;;;4.58;79.69;97611.75;5050409;28;20225;-67
2022/01/20 12:01:48;;;;;;;3.90;3.60;;;;;;;4.57;79.79;97606.59;5065003;28;20252;-67
2022/01/20 12:04:15;;;;;;;3.53;3.33;;;;;;;4.61;80.74;97608.09;5069034;28;20232;-66
2022/01/20 12:06:44;;;;;;;3.83;3.53;;;;;;;4.62;80.23;97613.28;5048207;28;20239;-68
2022/01/20 12:09:11;;;;;;;3.63;3.40;;;;;;;4.72;80.08;97613.63;5045687;28;20211;-67
2022/01/20 12:11:40;;;;;;;4.23;3.83;;;;;;;4.67;80.16;97616.50;5039975;28;20663;-67
2022/01/20 12:14:09;;;;;;;3.83;3.53;;;;;;;4.68;81.58;97619.94;5042237;28;20658;-68
2022/01/20 12:16:37;;;;;;;3.83;3.53;;;;;;;4.71;80.22;97618.00;5056440;28;20217;-66
2022/01/20 12:19:08;;;;;;;4.13;3.73;;;;;;;4.83;79.95;97617.34;5050105;28;20203;-67
2022/01/20 12:21:34;;;;;;;5.30;4.80;;;;;;;4.77;80.02;97608.97;5036172;28;20235;-67
2022/01/20 12:24:01;;;;;;;3.50;3.30;;;;;;;4.74;79.37;97607.38;5035770;28;20211;-67
2022/01/20 12:26:28;;;;;;;3.70;3.50;;;;;;;4.79;79.53;97607.09;5036438;28;20532;-66